Weather History for Salem, IL

Change the Weather History Date:

Wednesday, March 12, 2014

  Actual Average Record
Temperature  
Mean Temperature 48 °F -  
Max Temperature 64 °F 53 °F 79 °F (1972)
Min Temperature 31 °F 35 °F 10 °F (1960)
Degree Days  
Heating Degree Days 17    
Moisture  
Dew Point 34 °F    
Average Humidity 80    
Maximum Humidity 95    
Minimum Humidity 64    
Precipitation  
Precipitation 0.15 in - - ()
Sea Level Pressure  
Sea Level Pressure 29.86 in    
Wind  
Wind Speed 17 mph (NNW)    
Max Wind Speed 26 mph    
Max Gust Speed 36 mph    
Visibility 9 miles    
Events Rain , Snow , Thunderstorm    
Averages and records for this station are not official NWS values.
T = Trace of Precipitation, MM = Missing Value Source: NWS Daily Summary

Daily Weather History Graph

Daily Weather History Graph

Search for Another Location

Airport:

Trip Planner

Search our weather history database for the weather conditions in past years. The results will help you decide how hot, cold, wet, or windy it might be!

Date:

Astronomy

Mar. 12, 2014 Rise Set
Actual Time 7:11 AM CDT 6:59 PM CDT
Civil Twilight 6:45 AM CDT 7:26 PM CDT
Nautical Twilight 6:14 AM CDT 7:57 PM CDT
Astronomical Twilight 5:43 AM CDT 8:28 PM CDT
Moon 3:32 PM CDT (3/12) 4:41 AM CDT (3/12)
Length of Visible Light 12h 41m
Length of Day
11h 48m
Waxing Gibbous, 85% of the Moon is Illuminated
Mar 12
Waxing Gibbous
Mar 16
Full
Mar 23
Last Quarter
Mar 30
New
Apr 7
First Quarter

Hourly Weather History & Observations

Time (CDT) Temp. Windchill Dew Point Humidity Pressure Visibility Wind Dir Wind Speed Gust Speed Precip Events Conditions
12:15 AM 64.0 °F - 57.0 °F 78% 29.43 in 10.0 mi SSW 12.7 mph - N/A   Overcast
12:35 AM 64.4 °F - 57.2 °F 77% 29.42 in 10.0 mi SSW 16.1 mph - N/A   Overcast
12:55 AM 64.6 °F - 57.2 °F 77% 29.41 in 10.0 mi SSW 13.8 mph 20.7 mph N/A   Overcast
1:15 AM 62.4 °F - 54.7 °F 76% 29.42 in 10.0 mi NW 12.7 mph - N/A   Overcast
1:35 AM 52.0 °F - 48.2 °F 87% 29.43 in 5.0 mi NNW 15.0 mph - N/A Thunderstorm Overcast
1:55 AM 48.4 °F - 45.0 °F 88% 29.43 in 5.0 mi North 11.5 mph - N/A   Overcast
2:15 AM 46.9 °F - 44.2 °F 90% 29.43 in 4.0 mi North 11.5 mph - N/A   Overcast
2:35 AM 45.5 °F 38.6 °F 42.8 °F 90% 29.47 in 5.0 mi NW 16.1 mph 28.8 mph N/A Rain Light Rain
2:55 AM 43.3 °F 34.5 °F 41.0 °F 91% 29.50 in 4.0 mi NW 21.9 mph 33.4 mph 0.01 in Rain Heavy Rain
3:15 AM 41.5 °F 32.6 °F 39.7 °F 93% 29.49 in 1.8 mi NNW 19.6 mph 28.8 mph 0.07 in Thunderstorm Thunderstorm
3:35 AM 40.5 °F 30.7 °F 39.2 °F 95% 29.50 in 2.5 mi North 21.9 mph 32.2 mph 0.13 in   Unknown
3:55 AM 40.5 °F 30.7 °F 38.8 °F 94% 29.52 in 7.0 mi NNW 21.9 mph 33.4 mph 0.13 in Rain Rain
4:15 AM 40.3 °F 30.2 °F 38.5 °F 93% 29.53 in 10.0 mi NNW 23.0 mph 31.1 mph N/A   Overcast
4:35 AM 39.2 °F 29.3 °F 37.4 °F 93% 29.54 in 10.0 mi NNW 20.7 mph 33.4 mph N/A   Overcast
4:55 AM 38.8 °F 27.8 °F 36.3 °F 91% 29.56 in 10.0 mi North 25.3 mph 34.5 mph N/A   Overcast
5:15 AM 39.2 °F 29.0 °F 36.5 °F 90% 29.60 in 10.0 mi NW 21.9 mph 31.1 mph N/A   Overcast
5:35 AM 38.3 °F 27.8 °F 35.6 °F 90% 29.64 in 10.0 mi NW 21.9 mph 31.1 mph N/A   Overcast
5:55 AM 37.8 °F 26.1 °F 35.4 °F 91% 29.65 in 4.0 mi NNW 26.5 mph 31.1 mph N/A   Heavy Drizzle
6:15 AM 37.6 °F 25.9 °F 35.6 °F 93% 29.68 in 4.0 mi NNW 26.5 mph 34.5 mph N/A Rain Light Rain
6:35 AM 36.5 °F 25.4 °F 34.9 °F 94% 29.70 in 3.0 mi NNW 21.9 mph 34.5 mph N/A Snow Light Snow
6:55 AM 36.5 °F 25.4 °F 35.1 °F 95% 29.72 in 5.0 mi NNW 21.9 mph 34.5 mph 0.01 in   Overcast
7:15 AM 36.5 °F 24.9 °F 34.9 °F 94% 29.73 in 5.0 mi NNW 24.2 mph 35.7 mph N/A Rain Light Rain
7:35 AM 36.5 °F 26.0 °F 35.1 °F 95% 29.75 in 5.0 mi NNW 19.6 mph 32.2 mph N/A Rain Light Rain
7:55 AM 36.7 °F 26.0 °F 34.9 °F 93% 29.76 in 5.0 mi NNW 20.7 mph 27.6 mph N/A Rain Light Rain
8:15 AM 36.5 °F 24.9 °F 34.7 °F 93% 29.77 in 7.0 mi NNW 24.2 mph 29.9 mph N/A Rain Light Rain
8:35 AM 36.7 °F 25.1 °F 34.7 °F 93% 29.79 in 7.0 mi NNW 24.2 mph 31.1 mph N/A Rain Light Rain
8:55 AM 36.9 °F 25.6 °F 34.7 °F 92% 29.81 in 10.0 mi NNW 23.0 mph 32.2 mph N/A   Overcast
9:15 AM 36.9 °F 26.2 °F 34.7 °F 92% 29.83 in 10.0 mi NNW 20.7 mph 25.3 mph N/A   Overcast
9:35 AM 36.9 °F 25.9 °F 33.3 °F 87% 29.85 in 10.0 mi NNW 21.9 mph 32.2 mph N/A   Overcast
9:55 AM 37.2 °F 27.0 °F 33.8 °F 87% 29.87 in 10.0 mi NNW 19.6 mph 26.5 mph N/A   Overcast
10:15 AM 37.0 °F 26.4 °F 33.3 °F 86% 29.88 in 10.0 mi NNW 20.7 mph 28.8 mph N/A   Overcast
10:35 AM 36.9 °F 27.5 °F 32.5 °F 84% 29.89 in 10.0 mi NNW 16.1 mph 29.9 mph N/A   Overcast
10:55 AM 37.2 °F 25.9 °F 32.5 °F 83% 29.90 in 10.0 mi NNW 24.2 mph - N/A   Overcast
11:15 AM 37.8 °F 28.3 °F 32.9 °F 83% 29.91 in 10.0 mi NNW 17.3 mph 25.3 mph N/A   Overcast
11:35 AM 37.9 °F 27.6 °F 32.0 °F 79% 29.93 in 10.0 mi NNW 20.7 mph 32.2 mph N/A   Overcast
11:55 AM 38.1 °F 29.1 °F 32.0 °F 79% 29.94 in 10.0 mi NW 16.1 mph 29.9 mph N/A   Overcast
12:15 PM 39.2 °F 29.6 °F 32.2 °F 76% 29.94 in 10.0 mi NNW 19.6 mph 26.5 mph N/A   Overcast
12:35 PM 39.9 °F 30.2 °F 32.7 °F 75% 29.95 in 10.0 mi NNW 20.7 mph 25.3 mph N/A   Overcast
12:55 PM 38.8 °F 29.7 °F 32.4 °F 78% 29.96 in 10.0 mi NW 17.3 mph 27.6 mph N/A   Overcast
1:15 PM 40.3 °F 31.6 °F 32.0 °F 72% 29.97 in 10.0 mi NNW 17.3 mph - N/A   Overcast
1:35 PM 41.4 °F 32.7 °F 32.4 °F 70% 29.97 in 10.0 mi NNW 18.4 mph 26.5 mph N/A   Mostly Cloudy
1:55 PM 40.6 °F 31.4 °F 30.6 °F 67% 29.98 in 10.0 mi NNW 19.6 mph 24.2 mph N/A   Overcast
2:15 PM 40.6 °F 31.4 °F 31.8 °F 71% 29.98 in 10.0 mi NW 19.6 mph - N/A   Overcast
2:35 PM 41.2 °F 33.0 °F 32.4 °F 71% 29.99 in 10.0 mi NW 16.1 mph 25.3 mph N/A   Overcast
2:55 PM 41.2 °F 33.4 °F 32.0 °F 70% 29.99 in 10.0 mi NW 15.0 mph 23.0 mph N/A   Mostly Cloudy
3:15 PM 40.3 °F 31.9 °F 32.0 °F 72% 30.00 in 10.0 mi NW 16.1 mph 24.2 mph N/A   Overcast
3:35 PM 39.6 °F 30.3 °F 31.3 °F 72% 30.00 in 10.0 mi NW 18.4 mph 26.5 mph N/A   Overcast
3:55 PM 39.6 °F 32.1 °F 31.1 °F 72% 30.01 in 10.0 mi NW 12.7 mph 23.0 mph N/A   Overcast
4:15 PM 40.6 °F 31.7 °F 31.6 °F 70% 30.02 in 10.0 mi NNW 18.4 mph - N/A   Overcast
4:35 PM 40.8 °F 32.0 °F 31.3 °F 69% 30.02 in 10.0 mi NW 18.4 mph 21.9 mph N/A   Overcast
4:55 PM 40.8 °F 32.3 °F 29.3 °F 64% 30.03 in 10.0 mi NW 17.3 mph 24.2 mph N/A   Overcast
5:15 PM 39.9 °F 30.0 °F 31.1 °F 71% 30.04 in 10.0 mi NNW 21.9 mph 26.5 mph N/A   Overcast
5:35 PM 38.5 °F 29.9 °F 30.4 °F 73% 30.04 in 10.0 mi NW 15.0 mph 26.5 mph N/A   Overcast
5:55 PM 38.5 °F 29.9 °F 28.9 °F 69% 30.06 in 10.0 mi NW 15.0 mph 21.9 mph N/A   Overcast
6:15 PM 37.6 °F 28.4 °F 28.2 °F 69% 30.07 in 10.0 mi NNW 16.1 mph - N/A   Overcast
6:35 PM 36.9 °F 27.8 °F 28.4 °F 71% 30.08 in 10.0 mi NNW 15.0 mph 24.2 mph N/A   Overcast
6:55 PM 36.1 °F 26.9 °F 27.3 °F 70% 30.09 in 10.0 mi NW 15.0 mph 26.5 mph N/A   Mostly Cloudy
7:15 PM 36.0 °F 26.0 °F 27.0 °F 70% 30.10 in 10.0 mi NNW 17.3 mph 24.2 mph N/A   Mostly Cloudy
7:35 PM 35.6 °F 27.1 °F 26.8 °F 70% 30.10 in 10.0 mi NNW 12.7 mph 18.4 mph N/A   Scattered Clouds
7:55 PM 35.1 °F 25.9 °F 26.1 °F 70% 30.10 in 10.0 mi NNW 13.8 mph 18.4 mph N/A   Scattered Clouds
8:15 PM 34.7 °F 25.5 °F 25.3 °F 69% 30.11 in 10.0 mi NW 13.8 mph 17.3 mph N/A   Scattered Clouds
8:35 PM 34.7 °F 26.9 °F 25.3 °F 69% 30.11 in 10.0 mi NW 10.4 mph - N/A   Clear
8:55 PM 34.3 °F 27.0 °F 25.2 °F 69% 30.12 in 10.0 mi NW 9.2 mph - N/A   Clear
9:15 PM 33.8 °F 25.8 °F 25.5 °F 72% 30.12 in 10.0 mi NW 10.4 mph - N/A   Clear
9:35 PM 33.6 °F 27.5 °F 25.5 °F 72% 30.12 in 10.0 mi NW 6.9 mph - N/A   Clear
9:55 PM 33.1 °F 26.1 °F 25.5 °F 74% 30.13 in 10.0 mi NNW 8.1 mph - N/A   Clear
10:15 PM 33.1 °F 26.1 °F 25.5 °F 74% 30.14 in 10.0 mi NNW 8.1 mph - N/A   Scattered Clouds
10:35 PM 33.3 °F 25.7 °F 25.2 °F 72% 30.14 in 10.0 mi NNW 9.2 mph - N/A   Mostly Cloudy
10:55 PM 32.9 °F 25.3 °F 24.6 °F 72% 30.13 in 10.0 mi NNW 9.2 mph - N/A   Scattered Clouds
11:15 PM 32.5 °F 26.2 °F 24.6 °F 73% 30.13 in 10.0 mi NW 6.9 mph - N/A   Mostly Cloudy
11:35 PM 32.0 °F 25.6 °F 24.6 °F 74% 30.13 in 10.0 mi NNW 6.9 mph - N/A   Scattered Clouds
11:55 PM 31.6 °F 27.0 °F 25.3 °F 78% 30.13 in 10.0 mi NNW 4.6 mph - N/A   Clear